sensor_id;sensor_type;location;lat;lon;timestamp;P1;durP1;ratioP1;P2;durP2;ratioP2
32236;SDS011;18726;44.732;10.550;2024-03-02T00:02:29;36.83;;;20.63;;
32236;SDS011;18726;44.732;10.550;2024-03-02T00:05:32;34.83;;;22.67;;
32236;SDS011;18726;44.732;10.550;2024-03-02T00:08:36;33.47;;;24.17;;
32236;SDS011;18726;44.732;10.550;2024-03-02T00:11:40;41.80;;;24.30;;
32236;SDS011;18726;44.732;10.550;2024-03-02T00:14:43;39.40;;;25.85;;
32236;SDS011;18726;44.732;10.550;2024-03-02T00:17:46;43.95;;;25.25;;
32236;SDS011;18726;44.732;10.550;2024-03-02T00:24:18;33.00;;;22.77;;
32236;SDS011;18726;44.732;10.550;2024-03-02T00:27:42;40.58;;;24.20;;
32236;SDS011;18726;44.732;10.550;2024-03-02T00:30:54;43.83;;;21.23;;
32236;SDS011;18726;44.732;10.550;2024-03-02T00:34:01;43.00;;;22.63;;
32236;SDS011;18726;44.732;10.550;2024-03-02T00:37:08;29.25;;;20.13;;
32236;SDS011;18726;44.732;10.550;2024-03-02T00:40:12;39.17;;;22.48;;
32236;SDS011;18726;44.732;10.550;2024-03-02T00:46:28;40.90;;;24.15;;
32236;SDS011;18726;44.732;10.550;2024-03-02T00:49:36;38.03;;;24.85;;
32236;SDS011;18726;44.732;10.550;2024-03-02T00:52:40;50.35;;;25.98;;
32236;SDS011;18726;44.732;10.550;2024-03-02T00:55:44;38.63;;;24.55;;
32236;SDS011;18726;44.732;10.550;2024-03-02T00:58:50;38.25;;;25.02;;
32236;SDS011;18726;44.732;10.550;2024-03-02T01:01:55;43.88;;;25.77;;
32236;SDS011;18726;44.732;10.550;2024-03-02T01:04:59;37.50;;;23.38;;
32236;SDS011;18726;44.732;10.550;2024-03-02T01:08:02;46.70;;;25.60;;
32236;SDS011;18726;44.732;10.550;2024-03-02T01:11:06;40.92;;;26.50;;
32236;SDS011;18726;44.732;10.550;2024-03-02T01:14:10;33.67;;;23.92;;
32236;SDS011;18726;44.732;10.550;2024-03-02T01:17:14;36.28;;;25.67;;
32236;SDS011;18726;44.732;10.550;2024-03-02T01:20:17;45.38;;;27.65;;
32236;SDS011;18726;44.732;10.550;2024-03-02T01:23:22;36.72;;;24.33;;
32236;SDS011;18726;44.732;10.550;2024-03-02T01:26:26;52.05;;;25.73;;
32236;SDS011;18726;44.732;10.550;2024-03-02T01:29:30;45.97;;;27.13;;
32236;SDS011;18726;44.732;10.550;2024-03-02T01:32:33;40.58;;;26.85;;
32236;SDS011;18726;44.732;10.550;2024-03-02T01:35:37;36.83;;;26.00;;
32236;SDS011;18726;44.732;10.550;2024-03-02T01:38:41;42.78;;;27.58;;
32236;SDS011;18726;44.732;10.550;2024-03-02T01:41:44;45.72;;;28.30;;
32236;SDS011;18726;44.732;10.550;2024-03-02T01:44:48;39.78;;;28.13;;
32236;SDS011;18726;44.732;10.550;2024-03-02T01:47:52;46.53;;;29.15;;
32236;SDS011;18726;44.732;10.550;2024-03-02T01:50:56;49.38;;;31.23;;
32236;SDS011;18726;44.732;10.550;2024-03-02T01:54:00;48.55;;;30.38;;
32236;SDS011;18726;44.732;10.550;2024-03-02T01:57:04;45.25;;;31.52;;
32236;SDS011;18726;44.732;10.550;2024-03-02T02:00:08;47.80;;;33.38;;
32236;SDS011;18726;44.732;10.550;2024-03-02T02:03:15;46.60;;;33.63;;
32236;SDS011;18726;44.732;10.550;2024-03-02T02:06:19;50.50;;;37.72;;
32236;SDS011;18726;44.732;10.550;2024-03-02T02:09:23;52.70;;;36.67;;
32236;SDS011;18726;44.732;10.550;2024-03-02T02:12:27;56.42;;;39.72;;
32236;SDS011;18726;44.732;10.550;2024-03-02T02:15:31;65.05;;;40.03;;
32236;SDS011;18726;44.732;10.550;2024-03-02T02:18:37;60.53;;;40.17;;
32236;SDS011;18726;44.732;10.550;2024-03-02T02:21:44;51.30;;;39.28;;
32236;SDS011;18726;44.732;10.550;2024-03-02T02:24:47;55.17;;;38.42;;
32236;SDS011;18726;44.732;10.550;2024-03-02T02:27:51;60.35;;;40.58;;
32236;SDS011;18726;44.732;10.550;2024-03-02T02:30:55;51.80;;;38.90;;
32236;SDS011;18726;44.732;10.550;2024-03-02T02:34:03;49.78;;;42.08;;
32236;SDS011;18726;44.732;10.550;2024-03-02T02:37:07;55.85;;;41.78;;
32236;SDS011;18726;44.732;10.550;2024-03-02T02:40:11;56.80;;;42.47;;
32236;SDS011;18726;44.732;10.550;2024-03-02T02:43:15;54.90;;;41.97;;
32236;SDS011;18726;44.732;10.550;2024-03-02T02:46:19;55.78;;;42.13;;
32236;SDS011;18726;44.732;10.550;2024-03-02T02:49:23;61.30;;;44.83;;
32236;SDS011;18726;44.732;10.550;2024-03-02T02:52:30;55.67;;;43.20;;
32236;SDS011;18726;44.732;10.550;2024-03-02T02:55:36;67.65;;;49.55;;
32236;SDS011;18726;44.732;10.550;2024-03-02T02:58:43;59.45;;;45.15;;
32236;SDS011;18726;44.732;10.550;2024-03-02T03:01:47;63.90;;;47.83;;
32236;SDS011;18726;44.732;10.550;2024-03-02T03:04:50;67.82;;;47.25;;
32236;SDS011;18726;44.732;10.550;2024-03-02T03:07:54;64.85;;;48.80;;
32236;SDS011;18726;44.732;10.550;2024-03-02T03:10:57;61.28;;;45.20;;
32236;SDS011;18726;44.732;10.550;2024-03-02T03:14:01;63.45;;;50.78;;
32236;SDS011;18726;44.732;10.550;2024-03-02T03:17:04;60.40;;;49.88;;
32236;SDS011;18726;44.732;10.550;2024-03-02T03:20:10;58.33;;;48.05;;
32236;SDS011;18726;44.732;10.550;2024-03-02T03:23:14;59.55;;;48.13;;
32236;SDS011;18726;44.732;10.550;2024-03-02T03:26:19;58.55;;;49.58;;
32236;SDS011;18726;44.732;10.550;2024-03-02T03:29:22;59.15;;;47.78;;
32236;SDS011;18726;44.732;10.550;2024-03-02T03:32:26;68.38;;;49.85;;
32236;SDS011;18726;44.732;10.550;2024-03-02T03:35:30;63.15;;;45.50;;
32236;SDS011;18726;44.732;10.550;2024-03-02T03:38:33;60.08;;;47.90;;
32236;SDS011;18726;44.732;10.550;2024-03-02T03:41:36;57.75;;;46.92;;
32236;SDS011;18726;44.732;10.550;2024-03-02T03:44:40;59.80;;;46.90;;
32236;SDS011;18726;44.732;10.550;2024-03-02T03:47:44;54.38;;;44.70;;
32236;SDS011;18726;44.732;10.550;2024-03-02T03:50:48;53.20;;;45.53;;
32236;SDS011;18726;44.732;10.550;2024-03-02T03:53:52;54.28;;;42.78;;
32236;SDS011;18726;44.732;10.550;2024-03-02T03:56:56;52.10;;;41.83;;
32236;SDS011;18726;44.732;10.550;2024-03-02T03:59:59;56.85;;;44.45;;
32236;SDS011;18726;44.732;10.550;2024-03-02T04:03:03;59.20;;;49.38;;
32236;SDS011;18726;44.732;10.550;2024-03-02T04:06:07;67.53;;;50.20;;
32236;SDS011;18726;44.732;10.550;2024-03-02T04:09:11;56.58;;;47.08;;
32236;SDS011;18726;44.732;10.550;2024-03-02T04:12:15;60.70;;;46.10;;
32236;SDS011;18726;44.732;10.550;2024-03-02T04:15:19;52.83;;;41.17;;
32236;SDS011;18726;44.732;10.550;2024-03-02T04:18:22;49.72;;;40.63;;
32236;SDS011;18726;44.732;10.550;2024-03-02T04:21:26;51.50;;;39.75;;
32236;SDS011;18726;44.732;10.550;2024-03-02T04:24:29;46.70;;;38.22;;
32236;SDS011;18726;44.732;10.550;2024-03-02T04:27:33;46.88;;;39.40;;
32236;SDS011;18726;44.732;10.550;2024-03-02T04:30:36;49.15;;;39.42;;
32236;SDS011;18726;44.732;10.550;2024-03-02T04:33:40;51.10;;;38.95;;
32236;SDS011;18726;44.732;10.550;2024-03-02T04:36:43;50.40;;;39.20;;
32236;SDS011;18726;44.732;10.550;2024-03-02T04:39:47;47.90;;;38.85;;
32236;SDS011;18726;44.732;10.550;2024-03-02T04:42:51;49.20;;;42.75;;
32236;SDS011;18726;44.732;10.550;2024-03-02T04:45:55;56.13;;;41.40;;
32236;SDS011;18726;44.732;10.550;2024-03-02T04:48:58;58.63;;;45.83;;
32236;SDS011;18726;44.732;10.550;2024-03-02T04:52:02;72.22;;;53.42;;
32236;SDS011;18726;44.732;10.550;2024-03-02T04:55:05;65.53;;;50.15;;
32236;SDS011;18726;44.732;10.550;2024-03-02T04:58:28;60.15;;;46.25;;
32236;SDS011;18726;44.732;10.550;2024-03-02T05:01:31;62.88;;;45.00;;
32236;SDS011;18726;44.732;10.550;2024-03-02T05:04:36;57.47;;;45.63;;
32236;SDS011;18726;44.732;10.550;2024-03-02T05:07:40;59.97;;;47.30;;
32236;SDS011;18726;44.732;10.550;2024-03-02T05:10:45;58.90;;;46.03;;
32236;SDS011;18726;44.732;10.550;2024-03-02T05:13:49;68.10;;;47.67;;
32236;SDS011;18726;44.732;10.550;2024-03-02T05:16:52;69.35;;;49.78;;
32236;SDS011;18726;44.732;10.550;2024-03-02T05:19:56;70.72;;;51.03;;
32236;SDS011;18726;44.732;10.550;2024-03-02T05:23:00;69.13;;;47.63;;
32236;SDS011;18726;44.732;10.550;2024-03-02T05:26:04;58.47;;;43.97;;
32236;SDS011;18726;44.732;10.550;2024-03-02T05:29:08;60.63;;;46.53;;
32236;SDS011;18726;44.732;10.550;2024-03-02T05:32:11;68.88;;;50.35;;
32236;SDS011;18726;44.732;10.550;2024-03-02T05:35:14;60.67;;;43.72;;
32236;SDS011;18726;44.732;10.550;2024-03-02T05:38:18;52.28;;;40.42;;
32236;SDS011;18726;44.732;10.550;2024-03-02T05:41:22;52.65;;;37.33;;
32236;SDS011;18726;44.732;10.550;2024-03-02T05:44:26;55.85;;;37.90;;
32236;SDS011;18726;44.732;10.550;2024-03-02T05:47:30;45.75;;;36.92;;
32236;SDS011;18726;44.732;10.550;2024-03-02T05:50:33;49.03;;;35.88;;
32236;SDS011;18726;44.732;10.550;2024-03-02T05:53:37;43.88;;;35.25;;
32236;SDS011;18726;44.732;10.550;2024-03-02T05:56:41;45.67;;;36.20;;
32236;SDS011;18726;44.732;10.550;2024-03-02T05:59:45;48.78;;;35.72;;
32236;SDS011;18726;44.732;10.550;2024-03-02T06:02:49;39.92;;;34.42;;
32236;SDS011;18726;44.732;10.550;2024-03-02T06:05:53;50.47;;;37.92;;
32236;SDS011;18726;44.732;10.550;2024-03-02T06:08:57;48.83;;;38.28;;
32236;SDS011;18726;44.732;10.550;2024-03-02T06:12:01;51.35;;;39.15;;
32236;SDS011;18726;44.732;10.550;2024-03-02T06:15:07;51.47;;;38.90;;
32236;SDS011;18726;44.732;10.550;2024-03-02T06:18:11;53.03;;;38.28;;
32236;SDS011;18726;44.732;10.550;2024-03-02T06:21:14;50.10;;;37.03;;
32236;SDS011;18726;44.732;10.550;2024-03-02T06:24:18;45.83;;;35.47;;
32236;SDS011;18726;44.732;10.550;2024-03-02T06:27:22;51.60;;;38.28;;
32236;SDS011;18726;44.732;10.550;2024-03-02T06:30:26;52.60;;;36.85;;
32236;SDS011;18726;44.732;10.550;2024-03-02T06:33:30;48.08;;;34.63;;
32236;SDS011;18726;44.732;10.550;2024-03-02T06:36:33;45.70;;;34.15;;
32236;SDS011;18726;44.732;10.550;2024-03-02T06:39:37;45.70;;;33.33;;
32236;SDS011;18726;44.732;10.550;2024-03-02T06:42:41;45.70;;;33.90;;
32236;SDS011;18726;44.732;10.550;2024-03-02T06:45:45;43.58;;;32.95;;
32236;SDS011;18726;44.732;10.550;2024-03-02T06:48:49;43.15;;;32.63;;
32236;SDS011;18726;44.732;10.550;2024-03-02T06:51:52;43.15;;;31.58;;
32236;SDS011;18726;44.732;10.550;2024-03-02T06:54:55;34.22;;;29.67;;
32236;SDS011;18726;44.732;10.550;2024-03-02T06:57:58;38.20;;;29.75;;
32236;SDS011;18726;44.732;10.550;2024-03-02T07:01:02;35.90;;;30.25;;
32236;SDS011;18726;44.732;10.550;2024-03-02T07:04:06;40.92;;;29.88;;
32236;SDS011;18726;44.732;10.550;2024-03-02T07:07:10;39.95;;;29.27;;
32236;SDS011;18726;44.732;10.550;2024-03-02T07:10:14;38.03;;;28.95;;
32236;SDS011;18726;44.732;10.550;2024-03-02T07:13:18;39.97;;;28.85;;
32236;SDS011;18726;44.732;10.550;2024-03-02T07:16:22;31.30;;;26.95;;
32236;SDS011;18726;44.732;10.550;2024-03-02T07:19:33;39.90;;;28.80;;
32236;SDS011;18726;44.732;10.550;2024-03-02T07:22:36;33.50;;;27.98;;
32236;SDS011;18726;44.732;10.550;2024-03-02T07:25:40;28.77;;;25.20;;
32236;SDS011;18726;44.732;10.550;2024-03-02T07:28:45;34.15;;;25.50;;
32236;SDS011;18726;44.732;10.550;2024-03-02T07:31:51;31.95;;;25.45;;
32236;SDS011;18726;44.732;10.550;2024-03-02T07:34:54;26.10;;;23.25;;
32236;SDS011;18726;44.732;10.550;2024-03-02T07:37:59;29.75;;;23.85;;
32236;SDS011;18726;44.732;10.550;2024-03-02T07:41:03;24.00;;;21.08;;
32236;SDS011;18726;44.732;10.550;2024-03-02T07:44:07;28.00;;;21.90;;
32236;SDS011;18726;44.732;10.550;2024-03-02T07:47:11;25.67;;;20.50;;
32236;SDS011;18726;44.732;10.550;2024-03-02T07:50:16;27.25;;;21.67;;
32236;SDS011;18726;44.732;10.550;2024-03-02T07:53:20;29.58;;;23.52;;
32236;SDS011;18726;44.732;10.550;2024-03-02T07:56:23;24.30;;;21.25;;
32236;SDS011;18726;44.732;10.550;2024-03-02T07:59:27;24.95;;;20.25;;
32236;SDS011;18726;44.732;10.550;2024-03-02T08:02:31;25.25;;;20.05;;
32236;SDS011;18726;44.732;10.550;2024-03-02T08:05:35;22.25;;;18.67;;
32236;SDS011;18726;44.732;10.550;2024-03-02T08:08:39;21.30;;;19.02;;
32236;SDS011;18726;44.732;10.550;2024-03-02T08:11:42;20.05;;;17.98;;
32236;SDS011;18726;44.732;10.550;2024-03-02T08:14:46;19.95;;;17.85;;
32236;SDS011;18726;44.732;10.550;2024-03-02T08:17:50;21.08;;;18.88;;
32236;SDS011;18726;44.732;10.550;2024-03-02T08:20:53;21.15;;;17.88;;
32236;SDS011;18726;44.732;10.550;2024-03-02T08:23:57;20.63;;;18.35;;
32236;SDS011;18726;44.732;10.550;2024-03-02T08:27:01;21.23;;;19.00;;
32236;SDS011;18726;44.732;10.550;2024-03-02T08:30:05;21.38;;;18.98;;
32236;SDS011;18726;44.732;10.550;2024-03-02T08:33:11;21.90;;;19.52;;
32236;SDS011;18726;44.732;10.550;2024-03-02T08:36:15;21.55;;;19.40;;
32236;SDS011;18726;44.732;10.550;2024-03-02T08:39:19;23.55;;;21.08;;
32236;SDS011;18726;44.732;10.550;2024-03-02T08:42:22;22.92;;;19.52;;
32236;SDS011;18726;44.732;10.550;2024-03-02T08:45:26;21.35;;;19.15;;
32236;SDS011;18726;44.732;10.550;2024-03-02T08:48:30;21.67;;;19.52;;
32236;SDS011;18726;44.732;10.550;2024-03-02T08:51:34;22.52;;;20.20;;
32236;SDS011;18726;44.732;10.550;2024-03-02T08:54:38;24.08;;;20.75;;
32236;SDS011;18726;44.732;10.550;2024-03-02T08:57:42;22.73;;;20.42;;
32236;SDS011;18726;44.732;10.550;2024-03-02T09:00:46;22.83;;;20.65;;
32236;SDS011;18726;44.732;10.550;2024-03-02T09:03:50;22.85;;;20.27;;
32236;SDS011;18726;44.732;10.550;2024-03-02T09:06:54;25.05;;;22.35;;
32236;SDS011;18726;44.732;10.550;2024-03-02T09:09:58;24.60;;;21.98;;
32236;SDS011;18726;44.732;10.550;2024-03-02T09:13:01;23.70;;;21.27;;
32236;SDS011;18726;44.732;10.550;2024-03-02T09:16:06;22.73;;;20.23;;
32236;SDS011;18726;44.732;10.550;2024-03-02T09:19:10;25.75;;;21.65;;
32236;SDS011;18726;44.732;10.550;2024-03-02T09:22:14;22.77;;;20.58;;
32236;SDS011;18726;44.732;10.550;2024-03-02T09:25:18;29.13;;;25.15;;
32236;SDS011;18726;44.732;10.550;2024-03-02T09:28:22;75.13;;;65.47;;
32236;SDS011;18726;44.732;10.550;2024-03-02T09:31:25;19.98;;;17.73;;
32236;SDS011;18726;44.732;10.550;2024-03-02T09:34:29;16.60;;;14.82;;
32236;SDS011;18726;44.732;10.550;2024-03-02T09:37:33;16.92;;;14.85;;
32236;SDS011;18726;44.732;10.550;2024-03-02T09:40:37;21.63;;;15.82;;
32236;SDS011;18726;44.732;10.550;2024-03-02T09:43:40;13.75;;;12.45;;
32236;SDS011;18726;44.732;10.550;2024-03-02T09:46:44;13.05;;;11.88;;
32236;SDS011;18726;44.732;10.550;2024-03-02T09:49:52;13.38;;;12.00;;
32236;SDS011;18726;44.732;10.550;2024-03-02T09:52:56;17.45;;;14.38;;
32236;SDS011;18726;44.732;10.550;2024-03-02T09:56:01;18.38;;;14.52;;
32236;SDS011;18726;44.732;10.550;2024-03-02T09:59:05;73.03;;;37.92;;
32236;SDS011;18726;44.732;10.550;2024-03-02T10:02:09;19.70;;;16.63;;
32236;SDS011;18726;44.732;10.550;2024-03-02T10:05:12;13.82;;;12.43;;
32236;SDS011;18726;44.732;10.550;2024-03-02T10:08:17;11.15;;;10.05;;
32236;SDS011;18726;44.732;10.550;2024-03-02T10:11:28;10.65;;;9.77;;
32236;SDS011;18726;44.732;10.550;2024-03-02T10:14:32;11.48;;;10.27;;
32236;SDS011;18726;44.732;10.550;2024-03-02T10:17:36;11.10;;;9.75;;
32236;SDS011;18726;44.732;10.550;2024-03-02T10:20:40;10.75;;;9.65;;
32236;SDS011;18726;44.732;10.550;2024-03-02T10:23:43;10.13;;;9.13;;
32236;SDS011;18726;44.732;10.550;2024-03-02T10:26:48;10.52;;;9.10;;
32236;SDS011;18726;44.732;10.550;2024-03-02T10:29:52;9.15;;;8.25;;
32236;SDS011;18726;44.732;10.550;2024-03-02T10:32:57;9.75;;;8.88;;
32236;SDS011;18726;44.732;10.550;2024-03-02T10:36:00;11.27;;;10.10;;
32236;SDS011;18726;44.732;10.550;2024-03-02T10:39:05;12.35;;;9.88;;
32236;SDS011;18726;44.732;10.550;2024-03-02T10:42:10;12.25;;;9.45;;
32236;SDS011;18726;44.732;10.550;2024-03-02T10:45:16;10.50;;;9.48;;
32236;SDS011;18726;44.732;10.550;2024-03-02T10:48:19;11.93;;;10.75;;
32236;SDS011;18726;44.732;10.550;2024-03-02T10:51:25;12.82;;;11.00;;
32236;SDS011;18726;44.732;10.550;2024-03-02T10:54:29;12.23;;;10.95;;
32236;SDS011;18726;44.732;10.550;2024-03-02T10:57:51;16.23;;;10.25;;
32236;SDS011;18726;44.732;10.550;2024-03-02T11:01:00;10.80;;;9.70;;
32236;SDS011;18726;44.732;10.550;2024-03-02T11:07:25;10.88;;;9.88;;
32236;SDS011;18726;44.732;10.550;2024-03-02T11:10:37;14.10;;;11.77;;
32236;SDS011;18726;44.732;10.550;2024-03-02T11:13:50;12.88;;;11.68;;
32236;SDS011;18726;44.732;10.550;2024-03-02T11:16:55;10.80;;;9.80;;
32236;SDS011;18726;44.732;10.550;2024-03-02T11:20:03;11.45;;;10.25;;
32236;SDS011;18726;44.732;10.550;2024-03-02T11:23:08;10.43;;;9.52;;
32236;SDS011;18726;44.732;10.550;2024-03-02T11:26:22;11.63;;;10.52;;
32236;SDS011;18726;44.732;10.550;2024-03-02T11:32:43;10.68;;;9.68;;
32236;SDS011;18726;44.732;10.550;2024-03-02T11:35:59;10.02;;;9.13;;
32236;SDS011;18726;44.732;10.550;2024-03-02T11:39:04;470.17;;;373.85;;
32236;SDS011;18726;44.732;10.550;2024-03-02T11:42:08;515.65;;;432.10;;
32236;SDS011;18726;44.732;10.550;2024-03-02T11:45:31;264.55;;;202.20;;
32236;SDS011;18726;44.732;10.550;2024-03-02T11:48:37;10.98;;;9.88;;
32236;SDS011;18726;44.732;10.550;2024-03-02T11:51:53;18.67;;;12.63;;
32236;SDS011;18726;44.732;10.550;2024-03-02T11:55:04;11.15;;;9.95;;
32236;SDS011;18726;44.732;10.550;2024-03-02T11:58:21;11.20;;;10.10;;
32236;SDS011;18726;44.732;10.550;2024-03-02T12:01:28;10.98;;;10.00;;
32236;SDS011;18726;44.732;10.550;2024-03-02T12:04:33;10.77;;;9.88;;
32236;SDS011;18726;44.732;10.550;2024-03-02T12:07:38;10.82;;;9.75;;
32236;SDS011;18726;44.732;10.550;2024-03-02T12:10:43;11.25;;;10.07;;
32236;SDS011;18726;44.732;10.550;2024-03-02T12:14:01;11.52;;;10.25;;
32236;SDS011;18726;44.732;10.550;2024-03-02T12:17:08;11.60;;;10.55;;
32236;SDS011;18726;44.732;10.550;2024-03-02T12:20:14;11.32;;;10.32;;
32236;SDS011;18726;44.732;10.550;2024-03-02T12:23:30;10.65;;;9.73;;
32236;SDS011;18726;44.732;10.550;2024-03-02T12:29:44;11.70;;;10.55;;
32236;SDS011;18726;44.732;10.550;2024-03-02T12:32:48;9.20;;;8.35;;
32236;SDS011;18726;44.732;10.550;2024-03-02T12:35:53;9.50;;;8.63;;
32236;SDS011;18726;44.732;10.550;2024-03-02T12:38:57;9.63;;;8.75;;
32236;SDS011;18726;44.732;10.550;2024-03-02T12:42:02;9.48;;;8.57;;
32236;SDS011;18726;44.732;10.550;2024-03-02T12:45:06;8.73;;;7.93;;
32236;SDS011;18726;44.732;10.550;2024-03-02T12:48:10;8.73;;;8.02;;
32236;SDS011;18726;44.732;10.550;2024-03-02T12:55:45;7.55;;;6.95;;
32236;SDS011;18726;44.732;10.550;2024-03-02T12:59:23;7.18;;;6.57;;
32236;SDS011;18726;44.732;10.550;2024-03-02T13:03:04;7.50;;;6.82;;
32236;SDS011;18726;44.732;10.550;2024-03-02T13:15:57;7.05;;;6.45;;
32236;SDS011;18726;44.732;10.550;2024-03-02T13:19:05;7.78;;;6.82;;
32236;SDS011;18726;44.732;10.550;2024-03-02T13:22:11;8.45;;;7.57;;
32236;SDS011;18726;44.732;10.550;2024-03-02T13:25:15;9.40;;;8.50;;
32236;SDS011;18726;44.732;10.550;2024-03-02T13:28:39;8.32;;;7.72;;
32236;SDS011;18726;44.732;10.550;2024-03-02T13:31:44;15.65;;;14.27;;
32236;SDS011;18726;44.732;10.550;2024-03-02T13:34:48;8.43;;;7.72;;
32236;SDS011;18726;44.732;10.550;2024-03-02T13:37:52;9.32;;;8.52;;
32236;SDS011;18726;44.732;10.550;2024-03-02T13:41:17;7.72;;;7.05;;
32236;SDS011;18726;44.732;10.550;2024-03-02T13:44:30;7.72;;;7.13;;
32236;SDS011;18726;44.732;10.550;2024-03-02T13:47:35;7.75;;;7.22;;
32236;SDS011;18726;44.732;10.550;2024-03-02T13:50:39;7.43;;;6.72;;
32236;SDS011;18726;44.732;10.550;2024-03-02T13:53:43;12.25;;;11.10;;
32236;SDS011;18726;44.732;10.550;2024-03-02T13:56:52;10.63;;;9.75;;
32236;SDS011;18726;44.732;10.550;2024-03-02T14:03:28;8.43;;;7.82;;
32236;SDS011;18726;44.732;10.550;2024-03-02T14:06:32;7.72;;;7.03;;
32236;SDS011;18726;44.732;10.550;2024-03-02T14:09:36;498.67;;;302.98;;
32236;SDS011;18726;44.732;10.550;2024-03-02T14:12:40;756.45;;;316.95;;
32236;SDS011;18726;44.732;10.550;2024-03-02T14:15:45;8.88;;;8.18;;
32236;SDS011;18726;44.732;10.550;2024-03-02T14:18:52;8.15;;;7.55;;
32236;SDS011;18726;44.732;10.550;2024-03-02T14:21:56;8.57;;;7.78;;
32236;SDS011;18726;44.732;10.550;2024-03-02T14:25:11;7.93;;;6.93;;
32236;SDS011;18726;44.732;10.550;2024-03-02T14:28:14;8.20;;;7.50;;
32236;SDS011;18726;44.732;10.550;2024-03-02T14:31:24;14.98;;;11.95;;
32236;SDS011;18726;44.732;10.550;2024-03-02T14:34:28;7.97;;;7.38;;
32236;SDS011;18726;44.732;10.550;2024-03-02T14:37:32;16.02;;;10.20;;
32236;SDS011;18726;44.732;10.550;2024-03-02T14:40:40;8.00;;;7.25;;
32236;SDS011;18726;44.732;10.550;2024-03-02T14:43:44;6.38;;;5.88;;
32236;SDS011;18726;44.732;10.550;2024-03-02T14:46:48;7.63;;;6.72;;
32236;SDS011;18726;44.732;10.550;2024-03-02T14:49:52;6.90;;;6.40;;
32236;SDS011;18726;44.732;10.550;2024-03-02T14:52:56;7.80;;;7.20;;
32236;SDS011;18726;44.732;10.550;2024-03-02T14:56:01;7.88;;;7.10;;
32236;SDS011;18726;44.732;10.550;2024-03-02T15:03:35;7.43;;;6.82;;
32236;SDS011;18726;44.732;10.550;2024-03-02T15:06:49;8.10;;;7.45;;
32236;SDS011;18726;44.732;10.550;2024-03-02T15:09:56;6.57;;;6.13;;
32236;SDS011;18726;44.732;10.550;2024-03-02T15:13:03;7.55;;;6.88;;
32236;SDS011;18726;44.732;10.550;2024-03-02T15:16:07;6.72;;;6.22;;
32236;SDS011;18726;44.732;10.550;2024-03-02T15:19:11;7.32;;;6.72;;
32236;SDS011;18726;44.732;10.550;2024-03-02T15:22:15;6.57;;;5.97;;
32236;SDS011;18726;44.732;10.550;2024-03-02T15:25:23;6.47;;;5.97;;
32236;SDS011;18726;44.732;10.550;2024-03-02T15:28:27;6.30;;;5.80;;
32236;SDS011;18726;44.732;10.550;2024-03-02T15:35:47;10.98;;;7.50;;
32236;SDS011;18726;44.732;10.550;2024-03-02T15:44:03;7.72;;;7.13;;
32236;SDS011;18726;44.732;10.550;2024-03-02T15:47:28;8.20;;;7.60;;
32236;SDS011;18726;44.732;10.550;2024-03-02T15:55:49;9.85;;;9.05;;
32236;SDS011;18726;44.732;10.550;2024-03-02T16:03:33;10.48;;;9.30;;
32236;SDS011;18726;44.732;10.550;2024-03-02T16:06:50;9.82;;;8.88;;
32236;SDS011;18726;44.732;10.550;2024-03-02T16:09:54;9.57;;;8.77;;
32236;SDS011;18726;44.732;10.550;2024-03-02T16:12:58;10.18;;;9.18;;
32236;SDS011;18726;44.732;10.550;2024-03-02T16:16:03;10.43;;;9.52;;
32236;SDS011;18726;44.732;10.550;2024-03-02T16:19:07;11.77;;;10.75;;
32236;SDS011;18726;44.732;10.550;2024-03-02T16:25:47;13.93;;;12.45;;
32236;SDS011;18726;44.732;10.550;2024-03-02T16:28:53;12.55;;;11.35;;
32236;SDS011;18726;44.732;10.550;2024-03-02T16:31:56;12.25;;;11.25;;
32236;SDS011;18726;44.732;10.550;2024-03-02T16:35:00;12.25;;;11.25;;
32236;SDS011;18726;44.732;10.550;2024-03-02T16:38:08;14.13;;;12.98;;
32236;SDS011;18726;44.732;10.550;2024-03-02T16:50:30;14.10;;;12.77;;
32236;SDS011;18726;44.732;10.550;2024-03-02T16:53:34;13.95;;;12.80;;
32236;SDS011;18726;44.732;10.550;2024-03-02T16:59:43;14.35;;;13.05;;
32236;SDS011;18726;44.732;10.550;2024-03-02T17:02:47;13.50;;;12.20;;
32236;SDS011;18726;44.732;10.550;2024-03-02T17:05:51;13.57;;;12.25;;
32236;SDS011;18726;44.732;10.550;2024-03-02T17:08:55;13.30;;;12.00;;
32236;SDS011;18726;44.732;10.550;2024-03-02T17:11:59;13.85;;;12.75;;
32236;SDS011;18726;44.732;10.550;2024-03-02T17:15:04;13.45;;;12.35;;
32236;SDS011;18726;44.732;10.550;2024-03-02T17:18:10;16.27;;;14.88;;
32236;SDS011;18726;44.732;10.550;2024-03-02T17:21:17;15.70;;;14.32;;
32236;SDS011;18726;44.732;10.550;2024-03-02T17:24:21;15.88;;;14.52;;
32236;SDS011;18726;44.732;10.550;2024-03-02T17:27:25;16.15;;;14.80;;
32236;SDS011;18726;44.732;10.550;2024-03-02T17:30:29;15.65;;;14.15;;
32236;SDS011;18726;44.732;10.550;2024-03-02T17:33:33;17.27;;;15.88;;
32236;SDS011;18726;44.732;10.550;2024-03-02T17:36:36;17.73;;;16.33;;
32236;SDS011;18726;44.732;10.550;2024-03-02T17:39:40;18.60;;;16.98;;
32236;SDS011;18726;44.732;10.550;2024-03-02T17:42:43;18.38;;;16.67;;
32236;SDS011;18726;44.732;10.550;2024-03-02T17:45:47;17.05;;;15.65;;
32236;SDS011;18726;44.732;10.550;2024-03-02T17:48:50;29.02;;;26.42;;
32236;SDS011;18726;44.732;10.550;2024-03-02T17:51:54;19.05;;;17.45;;
32236;SDS011;18726;44.732;10.550;2024-03-02T17:54:57;18.65;;;16.77;;
32236;SDS011;18726;44.732;10.550;2024-03-02T17:58:01;16.30;;;14.90;;
32236;SDS011;18726;44.732;10.550;2024-03-02T18:01:05;18.85;;;17.10;;
32236;SDS011;18726;44.732;10.550;2024-03-02T18:04:09;17.50;;;16.00;;
32236;SDS011;18726;44.732;10.550;2024-03-02T18:07:13;17.52;;;15.82;;
32236;SDS011;18726;44.732;10.550;2024-03-02T18:10:18;16.27;;;15.05;;
32236;SDS011;18726;44.732;10.550;2024-03-02T18:13:22;18.08;;;16.40;;
32236;SDS011;18726;44.732;10.550;2024-03-02T18:16:25;18.95;;;17.33;;
32236;SDS011;18726;44.732;10.550;2024-03-02T18:19:29;20.63;;;18.67;;
32236;SDS011;18726;44.732;10.550;2024-03-02T18:22:34;21.80;;;19.90;;
32236;SDS011;18726;44.732;10.550;2024-03-02T18:25:38;20.45;;;18.65;;
32236;SDS011;18726;44.732;10.550;2024-03-02T18:28:44;19.83;;;17.85;;
32236;SDS011;18726;44.732;10.550;2024-03-02T18:31:48;18.85;;;16.73;;
32236;SDS011;18726;44.732;10.550;2024-03-02T18:34:51;16.63;;;15.02;;
32236;SDS011;18726;44.732;10.550;2024-03-02T18:37:55;17.17;;;15.60;;
32236;SDS011;18726;44.732;10.550;2024-03-02T18:40:58;22.65;;;20.45;;
32236;SDS011;18726;44.732;10.550;2024-03-02T18:44:02;17.88;;;16.38;;
32236;SDS011;18726;44.732;10.550;2024-03-02T18:47:08;19.27;;;17.40;;
32236;SDS011;18726;44.732;10.550;2024-03-02T18:50:14;20.02;;;17.92;;
32236;SDS011;18726;44.732;10.550;2024-03-02T18:53:17;19.85;;;18.15;;
32236;SDS011;18726;44.732;10.550;2024-03-02T18:56:21;21.55;;;19.77;;
32236;SDS011;18726;44.732;10.550;2024-03-02T18:59:25;22.02;;;19.77;;
32236;SDS011;18726;44.732;10.550;2024-03-02T19:02:29;22.80;;;20.60;;
32236;SDS011;18726;44.732;10.550;2024-03-02T19:05:33;24.50;;;22.02;;
32236;SDS011;18726;44.732;10.550;2024-03-02T19:08:37;26.08;;;23.50;;